Saarbrücken Airport EDDR

Flugplatz Daten

Name: Saarbrücken Airport

Ident: EDDR

Lat: 49,21459961

Long: 7,109509945

Platzhöhe: 1058 ft

IataCode: SCN

City: Saarbrücken

Homepage: http://www.flughafen-saarbruecken.de/

Metar

2021/10/16 18:20
EDDR 161820Z 09003KT 9999 BKN025 09/07 Q1020 NOSIG

Taf

2021/10/16 18:27
TAF EDDR 161700Z 1618/1718 VRB02KT 9999 SCT035
TEMPO 1700/1709 3000 BCFG PROB40
TEMPO 1702/1707 0400 FG BKN001
Gewünschte Webcam nicht vorhanden? Dann fügen Sie eine hinzu. Sie wird dann so schnell wie möglich freigeschaltet
Url: Title: